Overview Statistics Trail Chart Weather Telemetry Raw packets
 

This is the latest recevied weather packets stored in our database for station/object CT1EDG-13. If no packets are shown the sender has not sent any weather packets the latest 10 day(s).

<< 3 4 5 6 7 8 9 >>
Time Temp. Humidity Pressure Rain* Wind** Luminosity Snow
1788587032 25° C 79% 1007 hPa 0 mm - - -
1788586433 25.56° C 77% 1007 hPa 0 mm - - -
1788586432 25.56° C 77% 1007 hPa 0 mm - - -
1788585833 24.44° C 86% 1007.1 hPa 0 mm - - -
1788585831 24.44° C 86% 1007.1 hPa 0 mm - - -
1788585232 25.56° C 78% 1007.1 hPa 0 mm - - -
1788585231 25.56° C 78% 1007.1 hPa 0 mm - - -
1788584632 26.11° C 76% 1007.1 hPa 0 mm - - -
1788584631 26.11° C 76% 1007.1 hPa 0 mm - - -
1788584033 26.11° C 76% 1007.3 hPa 0 mm - - -
1788584031 26.11° C 76% 1007.3 hPa 0 mm - - -
1788583433 25.56° C 80% 1007.5 hPa 0 mm - - -
1788583431 25.56° C 80% 1007.5 hPa 0 mm - - -
1788582832 25° C 80% 1007.5 hPa 0 mm - - -
1788582831 25° C 80% 1007.5 hPa 0 mm - - -
1788582232 25.56° C 77% 1007.4 hPa 0 mm - - -
1788582231 25.56° C 77% 1007.4 hPa 0 mm - - -
1788581632 25.56° C 77% 1007.5 hPa 0 mm - - -
1788581631 25.56° C 77% 1007.5 hPa 0 mm - - -
1788581032 25° C 79% 1007.5 hPa 0 mm - - -
1788581031 25° C 79% 1007.5 hPa 0 mm - - -
1788580432 24.44° C 83% 1007.4 hPa 0 mm - - -
1788580431 24.44° C 83% 1007.4 hPa 0 mm - - -
1788579868 23.89° C 85% 1007.5 hPa 0 mm - - -
1788579832 23.89° C 85% 1007.5 hPa 0 mm - - -

* Rain latest hour (hover to see other rain measurements)
** Current wind speed in m/s (hover to see current wind gust speed)